Time;durP1;ratioP1;P1;durP2;ratioP2;P2;SDS_P1;SDS_P2;PMS_P1;PMS_P2;Temp;Humidity;BMP_temperature;BMP_pressure;BME280_temperature;BME280_humidity;BME280_pressure;Samples;Min_cycle;Max_cycle;Signal;HPM_P1;HPM_P2
2022/11/27 00:00:39;;;;;;;17.53;11.80;;;5.90;1.00;;;;;;5007932;28;20803;-65
2022/11/27 00:03:05;;;;;;;14.17;11.70;;;5.90;99.90;;;;;;5008662;28;20430;-66
2022/11/27 00:05:31;;;;;;;16.03;11.27;;;5.90;1.00;;;;;;5009049;28;20286;-65
2022/11/27 00:07:56;;;;;;;13.60;10.97;;;5.90;1.00;;;;;;5008109;28;20226;-65
2022/11/27 00:10:22;;;;;;;17.43;10.70;;;5.90;1.00;;;;;;5008259;28;20180;-65
2022/11/27 00:12:48;;;;;;;22.43;11.50;;;5.90;1.00;;;;;;5002049;28;20169;-66
2022/11/27 00:15:14;;;;;;;24.80;11.13;;;5.80;1.00;;;;;;5008903;28;20180;-65
2022/11/27 00:17:40;;;;;;;14.23;11.70;;;5.80;1.00;;;;;;5007139;28;20268;-66
2022/11/27 00:20:06;;;;;;;33.63;11.77;;;5.90;1.00;;;;;;5009762;28;20629;-65
2022/11/27 00:22:32;;;;;;;19.57;11.20;;;5.80;73.30;;;;;;5006428;28;20246;-65
2022/11/27 00:24:57;;;;;;;21.33;12.13;;;5.80;1.00;;;;;;5007186;28;20932;-66
2022/11/27 00:27:23;;;;;;;16.80;11.30;;;5.80;1.00;;;;;;5002732;28;20348;-65
2022/11/27 00:29:49;;;;;;;14.20;10.33;;;5.70;1.00;;;;;;5008700;28;20183;-65
2022/11/27 00:32:15;;;;;;;11.80;9.73;;;5.70;1.00;;;;;;5008367;28;20177;-65
2022/11/27 00:34:40;;;;;;;13.57;11.50;;;5.70;1.00;;;;;;5007139;28;20195;-66
2022/11/27 00:37:06;;;;;;;10.80;9.40;;;5.80;99.90;;;;;;5008697;28;20319;-65
2022/11/27 00:39:32;;;;;;;16.57;11.37;;;5.70;1.00;;;;;;5006928;28;20181;-65
2022/11/27 00:41:58;;;;;;;11.53;10.23;;;5.70;1.00;;;;;;5007610;28;20544;-66
2022/11/27 00:44:24;;;;;;;10.93;8.13;;;5.60;99.90;;;;;;5008211;28;20431;-65
2022/11/27 00:46:49;;;;;;;11.63;10.17;;;5.60;99.90;;;;;;5008167;28;20717;-65
2022/11/27 00:49:15;;;;;;;11.17;10.03;;;5.60;99.90;;;;;;5008388;28;20553;-65
2022/11/27 00:51:41;;;;;;;16.13;10.60;;;5.60;1.00;;;;;;5008547;28;20262;-65
2022/11/27 00:54:07;;;;;;;11.73;9.73;;;5.40;99.90;;;;;;5008279;28;20221;-65
2022/11/27 00:56:36;;;;;;;12.63;9.40;;;5.40;94.30;;;;;;5008253;28;20462;-66
2022/11/27 00:59:04;;;;;;;12.03;10.57;;;5.40;99.90;;;;;;5008238;28;20497;-65
2022/11/27 01:01:33;;;;;;;13.53;10.07;;;5.40;99.90;;;;;;5007609;28;20532;-66
2022/11/27 01:04:00;;;;;;;22.80;11.33;;;5.30;1.00;;;;;;5007362;28;20487;-65
2022/11/27 01:06:27;;;;;;;13.60;10.47;;;5.10;99.90;;;;;;5008172;28;20450;-65
2022/11/27 01:08:53;;;;;;;17.23;12.37;;;5.10;99.90;;;;;;5005866;28;20467;-65
2022/11/27 01:11:26;;;;;;;16.37;9.90;;;5.00;99.90;;;;;;5008504;28;20427;-65
2022/11/27 01:13:54;;;;;;;14.27;9.93;;;5.00;99.90;;;;;;5009714;28;20727;-65
2022/11/27 01:16:22;;;;;;;11.97;10.83;;;5.20;1.10;;;;;;5009749;28;20986;-66
2022/11/27 01:18:49;;;;;;;12.97;9.83;;;5.20;1.00;;;;;;5009379;28;20407;-65
2022/11/27 01:21:18;;;;;;;13.67;10.80;;;5.30;1.00;;;;;;5008692;28;20411;-65
2022/11/27 01:23:44;;;;;;;11.70;9.53;;;5.30;99.90;;;;;;5008487;28;21022;-64
2022/11/27 01:26:11;;;;;;;12.60;10.20;;;5.30;1.00;;;;;;5008320;28;21017;-65
2022/11/27 01:28:38;;;;;;;13.40;10.30;;;5.10;1.00;;;;;;5009194;28;20451;-65
2022/11/27 01:31:14;;;;;;;11.67;9.73;;;5.10;1.00;;;;;;5008859;28;20461;-65
2022/11/27 01:33:39;;;;;;;13.87;10.27;;;5.20;1.00;;;;;;5009590;28;20503;-65
2022/11/27 01:36:06;;;;;;;10.87;9.77;;;5.20;1.00;;;;;;5009778;28;20486;-65
2022/11/27 01:38:33;;;;;;;11.17;9.13;;;5.10;96.00;;;;;;5008312;28;20171;-65
2022/11/27 01:41:01;;;;;;;14.07;8.67;;;4.90;99.90;;;;;;5007631;28;20935;-66
2022/11/27 01:43:57;;;;;;;17.50;8.70;;;4.40;99.90;;;;;;5008211;28;20435;-65
2022/11/27 01:46:35;;;;;;;13.43;9.30;;;4.40;99.90;;;;;;5002426;28;20814;-65
2022/11/27 01:49:10;;;;;;;16.80;9.60;;;4.30;46.30;;;;;;5003691;28;20487;-65
2022/11/27 01:51:44;;;;;;;11.27;10.00;;;4.30;99.90;;;;;;5004604;28;20430;-65
2022/11/27 01:54:10;;;;;;;15.03;9.80;;;4.40;99.90;;;;;;5007853;28;20431;-65
2022/11/27 01:56:37;;;;;;;12.50;10.07;;;4.50;1.00;;;;;;5008920;28;20459;-64
2022/11/27 01:59:03;;;;;;;9.67;8.67;;;4.40;99.90;;;;;;4996612;28;20443;-64
2022/11/27 02:01:29;;;;;;;10.30;8.30;;;4.30;99.90;;;;;;5006609;28;20420;-65
2022/11/27 02:03:58;;;;;;;10.50;8.30;;;4.50;99.90;;;;;;5000387;28;20913;-65
2022/11/27 02:06:24;;;;;;;10.63;8.20;;;4.70;25.20;;;;;;5008757;28;20322;-65
2022/11/27 02:08:51;;;;;;;12.03;8.60;;;4.80;1.00;;;;;;5008694;28;20464;-65
2022/11/27 02:11:41;;;;;;;21.00;10.47;;;4.90;1.00;;;;;;5007811;28;20522;-64
2022/11/27 02:14:30;;;;;;;12.13;9.00;;;4.90;1.00;;;;;;5002460;28;20419;-64
2022/11/27 02:17:17;;;;;;;11.53;8.87;;;5.00;1.00;;;;;;5002373;28;20442;-64
2022/11/27 02:20:02;;;;;;;11.90;8.90;;;4.90;99.90;;;;;;5009183;28;20430;-64
2022/11/27 02:23:04;;;;;;;10.43;9.30;;;4.90;1.00;;;;;;5008788;28;20435;-65
2022/11/27 02:26:05;;;;;;;13.20;9.00;;;4.80;1.00;;;;;;5009792;28;20507;-63
2022/11/27 02:29:01;;;;;;;12.83;9.73;;;4.90;1.00;;;;;;4971650;28;20507;-64
2022/11/27 02:31:48;;;;;;;13.80;9.83;;;5.00;1.00;;;;;;5005745;28;20868;-64
2022/11/27 02:34:35;;;;;;;10.60;9.47;;;5.10;1.00;;;;;;5001130;28;20423;-65
2022/11/27 02:37:09;;;;;;;12.17;10.30;;;5.00;99.90;;;;;;5011760;28;20537;-64
2022/11/27 02:39:47;;;;;;;14.37;9.30;;;4.90;1.00;;;;;;5012373;28;20513;-64
2022/11/27 02:42:19;;;;;;;10.33;8.70;;;4.80;1.00;;;;;;5007767;28;20501;-65
2022/11/27 02:44:56;;;;;;;12.93;10.70;;;4.90;1.00;;;;;;5005686;28;21381;-64
2022/11/27 02:47:22;;;;;;;13.67;9.03;;;5.00;1.00;;;;;;5012150;28;20465;-64
2022/11/27 02:49:50;;;;;;;17.27;9.97;;;4.90;99.90;;;;;;5005525;28;20808;-63
2022/11/27 02:52:18;;;;;;;14.83;9.60;;;4.90;99.90;;;;;;5010360;28;20439;-64
2022/11/27 02:54:47;;;;;;;12.00;9.33;;;4.90;1.00;;;;;;5008885;28;20423;-64
2022/11/27 02:57:14;;;;;;;12.47;10.07;;;5.00;99.90;;;;;;5011808;28;21013;-64
2022/11/27 02:59:41;;;;;;;12.27;9.20;;;4.90;26.80;;;;;;5010492;28;20431;-64
2022/11/27 03:02:13;;;;;;;11.37;9.67;;;4.90;99.90;;;;;;5011584;28;20460;-64
2022/11/27 03:04:45;;;;;;;12.50;9.50;;;4.90;1.00;;;;;;5004135;28;22191;-64
2022/11/27 03:07:16;;;;;;;14.93;10.00;;;5.00;99.90;;;;;;5010528;28;20974;-64
2022/11/27 03:09:46;;;;;;;12.20;9.60;;;5.00;99.90;;;;;;5011444;28;20958;-64
2022/11/27 03:12:14;;;;;;;10.70;8.80;;;5.00;99.90;;;;;;5002865;28;20569;-64
2022/11/27 03:14:41;;;;;;;9.23;8.27;;;5.00;99.90;;;;;;5011460;28;20434;-64
2022/11/27 03:17:40;;;;;;;11.47;9.60;;;4.90;1.00;;;;;;5011680;28;20459;-64
2022/11/27 03:20:06;;;;;;;12.57;8.80;;;4.90;1.00;;;;;;5011683;28;20431;-64
2022/11/27 03:22:32;;;;;;;19.03;9.20;;;5.00;1.00;;;;;;5006102;28;20436;-64
2022/11/27 03:24:58;;;;;;;10.97;9.13;;;4.70;99.90;;;;;;5011665;28;20189;-64
2022/11/27 03:27:36;;;;;;;27.43;9.10;;;4.50;99.90;;;;;;5007037;28;20990;-62
2022/11/27 03:30:06;;;;;;;11.63;8.83;;;4.20;1.00;;;;;;5011787;28;20560;-64
2022/11/27 03:32:32;;;;;;;13.83;9.50;;;4.00;1.00;;;;;;5010115;28;20550;-64
2022/11/27 03:34:58;;;;;;;15.63;8.57;;;3.80;1.00;;;;;;5002151;28;20515;-64
2022/11/27 03:37:24;;;;;;;17.63;9.00;;;3.90;1.00;;;;;;5010729;28;20294;-64
2022/11/27 03:39:50;;;;;;;16.10;8.80;;;4.00;99.90;;;;;;5010813;28;20510;-62
2022/11/27 03:42:21;;;;;;;23.80;9.50;;;3.90;99.90;;;;;;5009366;28;20505;-64
2022/11/27 03:45:08;;;;;;;13.83;9.77;;;3.90;99.90;;;;;;5010071;28;20438;-64
2022/11/27 03:47:39;;;;;;;15.97;10.53;;;3.80;1.00;;;;;;5009634;28;20474;-64
2022/11/27 03:50:31;;;;;;;23.17;11.37;;;3.60;1.00;;;;;;5010675;28;20427;-64
2022/11/27 03:53:21;;;;;;;18.50;9.90;;;3.80;1.00;;;;;;5000223;28;20435;-64
2022/11/27 03:56:02;;;;;;;13.80;9.27;;;3.70;1.00;;;;;;4995417;28;20511;-64
2022/11/27 03:58:31;;;;;;;10.40;7.90;;;4.00;1.00;;;;;;5010931;28;20485;-64
2022/11/27 04:00:59;;;;;;;12.03;8.13;;;3.90;99.90;;;;;;5002679;28;20481;-64
2022/11/27 04:03:28;;;;;;;16.70;8.53;;;4.00;99.90;;;;;;5002645;28;20463;-64
2022/11/27 04:05:54;;;;;;;11.80;8.53;;;4.00;99.90;;;;;;5011049;28;20876;-64
2022/11/27 04:08:20;;;;;;;11.30;8.77;;;4.20;99.90;;;;;;5009987;28;20462;-64
2022/11/27 04:10:46;;;;;;;13.33;8.57;;;4.20;99.90;;;;;;5010224;28;20443;-64
2022/11/27 04:13:12;;;;;;;11.73;8.70;;;4.30;99.90;;;;;;5000266;28;20468;-64
2022/11/27 04:15:38;;;;;;;16.90;9.07;;;4.40;99.90;;;;;;5004047;28;20436;-65
2022/11/27 04:18:04;;;;;;;12.17;8.27;;;4.40;1.00;;;;;;5003909;28;20210;-64
2022/11/27 04:20:29;;;;;;;14.80;9.23;;;4.40;1.00;;;;;;5009964;28;20223;-64
2022/11/27 04:22:55;;;;;;;12.73;8.83;;;4.40;17.50;;;;;;5010085;28;20470;-64
2022/11/27 04:25:22;;;;;;;19.00;9.27;;;4.30;1.00;;;;;;5003539;28;20180;-64
2022/11/27 04:27:48;;;;;;;10.37;8.10;;;4.40;1.00;;;;;;5004892;28;20283;-64
2022/11/27 04:30:14;;;;;;;10.50;7.80;;;4.40;1.00;;;;;;5007454;28;20431;-64
2022/11/27 04:32:40;;;;;;;11.77;8.33;;;4.40;1.00;;;;;;5009527;28;20967;-64
2022/11/27 04:35:06;;;;;;;14.67;9.77;;;4.30;1.00;;;;;;5002617;28;20458;-64
2022/11/27 04:37:32;;;;;;;10.20;8.40;;;4.30;99.90;;;;;;5008781;28;20203;-64
2022/11/27 04:39:57;;;;;;;12.73;9.53;;;4.50;58.70;;;;;;5009012;28;20496;-64
2022/11/27 04:42:23;;;;;;;13.13;10.73;;;4.40;1.00;;;;;;5008831;28;20195;-64
2022/11/27 04:44:49;;;;;;;11.80;9.03;;;4.50;1.00;;;;;;5009662;28;20255;-63
2022/11/27 04:47:14;;;;;;;11.77;9.07;;;4.60;1.00;;;;;;5009875;28;20204;-64
2022/11/27 04:49:40;;;;;;;14.10;9.03;;;4.60;1.00;;;;;;5009778;28;20650;-64
2022/11/27 04:52:06;;;;;;;15.27;9.33;;;4.50;99.90;;;;;;5009826;28;20259;-64
2022/11/27 04:54:32;;;;;;;10.87;8.30;;;4.60;1.00;;;;;;5009855;28;20582;-64
2022/11/27 04:56:57;;;;;;;11.90;8.77;;;4.60;99.90;;;;;;5009629;28;20199;-62
2022/11/27 04:59:23;;;;;;;12.83;8.07;;;4.60;99.90;;;;;;5005025;28;20520;-63
2022/11/27 05:01:49;;;;;;;13.27;8.20;;;4.50;1.00;;;;;;5000227;28;20179;-64
2022/11/27 05:04:15;;;;;;;10.60;8.40;;;4.50;1.00;;;;;;5009231;28;20180;-64
2022/11/27 05:06:40;;;;;;;11.20;7.87;;;4.60;1.00;;;;;;5009389;28;20685;-64
2022/11/27 05:09:06;;;;;;;13.60;8.40;;;4.50;1.00;;;;;;5008027;28;20203;-64
2022/11/27 05:11:32;;;;;;;10.00;7.83;;;4.50;1.00;;;;;;5009565;28;20582;-64
2022/11/27 05:16:50;;;;;;;10.97;8.20;;;4.40;99.90;;;;;;5003421;28;20442;-64
2022/11/27 05:19:18;;;;;;;14.10;8.33;;;4.30;99.90;;;;;;5005272;28;20423;-65
2022/11/27 05:21:45;;;;;;;11.23;8.57;;;4.30;99.90;;;;;;5008480;28;20454;-65
2022/11/27 05:24:11;;;;;;;8.40;7.50;;;4.40;1.00;;;;;;5002061;28;21575;-65
2022/11/27 05:26:38;;;;;;;9.27;8.10;;;4.40;99.90;;;;;;5009740;28;20473;-65
2022/11/27 05:29:04;;;;;;;9.63;7.63;;;4.50;35.00;;;;;;5005448;28;20459;-65
2022/11/27 05:31:30;;;;;;;9.97;8.33;;;4.40;1.00;;;;;;5004125;28;20427;-65
2022/11/27 05:33:56;;;;;;;8.73;7.60;;;4.40;1.00;;;;;;5008971;28;20441;-65
2022/11/27 05:36:22;;;;;;;12.57;7.70;;;4.40;1.00;;;;;;5009641;28;20588;-65
2022/11/27 05:38:48;;;;;;;8.23;7.07;;;4.40;1.00;;;;;;5007117;28;20431;-65
2022/11/27 05:41:14;;;;;;;9.27;7.93;;;4.10;1.00;;;;;;5008828;28;20485;-65
2022/11/27 05:43:42;;;;;;;8.77;7.87;;;4.10;99.90;;;;;;4996163;28;20227;-65
2022/11/27 05:46:11;;;;;;;8.07;7.27;;;4.20;99.90;;;;;;5003764;28;20200;-65
2022/11/27 05:48:37;;;;;;;11.80;7.17;;;4.10;1.00;;;;;;5007915;28;20532;-65
2022/11/27 05:51:03;;;;;;;9.17;7.70;;;4.00;99.90;;;;;;5009188;28;20815;-64
2022/11/27 05:53:29;;;;;;;9.47;8.23;;;3.60;99.90;;;;;;5001049;28;20181;-65
2022/11/27 05:55:59;;;;;;;13.17;8.47;;;3.60;99.90;;;;;;5005897;28;20478;-64
2022/11/27 05:58:25;;;;;;;16.43;7.87;;;3.90;99.90;;;;;;5010096;28;20255;-64
2022/11/27 06:00:51;;;;;;;11.30;8.00;;;3.80;1.00;;;;;;5008000;28;20982;-63
2022/11/27 06:03:17;;;;;;;11.07;7.53;;;3.60;99.90;;;;;;5006593;28;20239;-64
2022/11/27 06:05:43;;;;;;;11.90;8.77;;;3.50;99.90;;;;;;4990721;28;20521;-64
2022/11/27 06:08:09;;;;;;;10.70;7.90;;;3.50;99.90;;;;;;4996545;28;20512;-65
2022/11/27 06:10:37;;;;;;;13.63;8.80;;;3.50;99.90;;;;;;5009983;28;20683;-64
2022/11/27 06:13:03;;;;;;;12.20;9.53;;;3.50;99.90;;;;;;5012808;28;20169;-64
2022/11/27 06:15:28;;;;;;;27.80;10.87;;;3.40;99.90;;;;;;5012796;28;20537;-64
2022/11/27 06:17:54;;;;;;;20.73;8.60;;;3.60;99.90;;;;;;5012871;28;20552;-64
2022/11/27 06:20:20;;;;;;;25.80;8.20;;;3.50;1.00;;;;;;5012544;28;20184;-65
2022/11/27 06:22:45;;;;;;;10.77;7.73;;;3.30;99.90;;;;;;5011971;28;20622;-64
2022/11/27 06:25:11;;;;;;;17.30;8.43;;;3.20;1.00;;;;;;5012534;28;20225;-64
2022/11/27 06:27:37;;;;;;;10.80;7.40;;;2.80;1.00;;;;;;5007807;28;20208;-65
2022/11/27 06:30:04;;;;;;;19.93;9.03;;;2.80;1.00;;;;;;5004712;28;20284;-65
2022/11/27 06:32:29;;;;;;;16.50;7.90;;;3.00;1.00;;;;;;5011815;28;20207;-64
2022/11/27 06:34:55;;;;;;;17.83;8.57;;;3.00;1.00;;;;;;5012402;28;20478;-64
2022/11/27 06:37:21;;;;;;;19.87;8.37;;;2.90;1.00;;;;;;5012185;28;20208;-64
2022/11/27 06:39:50;;;;;;;11.97;7.90;;;2.80;1.00;;;;;;5011626;28;20681;-61
2022/11/27 06:42:16;;;;;;;13.90;7.73;;;2.90;1.00;;;;;;5009375;28;20580;-62
2022/11/27 06:44:41;;;;;;;14.03;7.60;;;3.00;1.00;;;;;;5011010;28;20758;-63
2022/11/27 06:47:07;;;;;;;11.13;7.27;;;2.90;1.00;;;;;;5009033;28;20467;-63
2022/11/27 06:49:33;;;;;;;16.00;8.10;;;2.90;99.90;;;;;;5011135;28;20259;-64
2022/11/27 06:51:59;;;;;;;8.50;7.37;;;2.70;1.00;;;;;;5009654;28;20255;-66
2022/11/27 06:54:25;;;;;;;8.70;6.80;;;2.70;1.00;;;;;;5005799;28;20435;-66
2022/11/27 06:56:51;;;;;;;16.67;8.00;;;2.90;1.00;;;;;;5011529;28;20454;-66
2022/11/27 06:59:17;;;;;;;9.07;7.37;;;3.20;1.00;;;;;;5023938;28;20184;-66
2022/11/27 07:01:43;;;;;;;25.10;7.03;;;3.40;99.90;;;;;;5014843;28;20278;-66
2022/11/27 07:04:11;;;;;;;8.40;7.20;;;3.00;99.90;;;;;;5019325;28;20426;-66
2022/11/27 07:06:37;;;;;;;13.80;7.97;;;3.10;99.90;;;;;;5027593;28;20935;-65
2022/11/27 07:09:04;;;;;;;16.13;8.87;;;3.20;99.90;;;;;;5019947;28;20503;-65
2022/11/27 07:11:30;;;;;;;12.47;8.07;;;3.30;99.90;;;;;;5014054;28;20416;-66
2022/11/27 07:13:58;;;;;;;48.13;11.50;;;3.10;99.90;;;;;;5029273;28;21102;-65
2022/11/27 07:16:25;;;;;;;10.27;7.90;;;3.30;99.90;;;;;;5026057;28;20465;-66
2022/11/27 07:18:54;;;;;;;9.83;7.87;;;3.50;1.00;;;;;;5017591;28;21008;-66
2022/11/27 07:21:20;;;;;;;17.83;7.63;;;3.50;99.90;;;;;;5011602;28;20447;-65
2022/11/27 07:23:46;;;;;;;12.73;7.57;;;3.50;1.00;;;;;;5012193;28;22237;-66
2022/11/27 07:26:14;;;;;;;23.20;9.87;;;3.40;99.90;;;;;;5009765;28;21113;-66
2022/11/27 07:28:43;;;;;;;17.70;10.03;;;3.50;1.00;;;;;;5013637;28;20779;-66
2022/11/27 07:31:11;;;;;;;36.57;10.90;;;3.60;1.00;;;;;;5008591;28;20531;-66
2022/11/27 07:33:36;;;;;;;22.53;11.43;;;3.60;56.50;;;;;;5016647;28;20927;-66
2022/11/27 07:36:10;;;;;;;15.83;10.10;;;3.50;1.00;;;;;;5011726;28;20493;-66
2022/11/27 07:38:35;;;;;;;22.43;10.60;;;3.40;99.90;;;;;;5001337;28;20215;-66
2022/11/27 07:41:02;;;;;;;14.40;9.57;;;3.20;1.00;;;;;;5016024;28;20435;-66
2022/11/27 07:43:29;;;;;;;16.43;9.70;;;3.00;1.00;;;;;;5011298;28;20213;-66
2022/11/27 07:45:55;;;;;;;18.20;10.73;;;2.70;99.90;;;;;;5011187;28;20447;-65
2022/11/27 07:48:21;;;;;;;17.90;9.70;;;2.70;99.90;;;;;;5011001;28;20769;-67
2022/11/27 07:50:47;;;;;;;20.40;10.27;;;3.00;99.90;;;;;;5010562;28;20435;-66
2022/11/27 07:53:12;;;;;;;23.03;10.53;;;3.30;27.60;;;;;;5010902;28;20181;-66
2022/11/27 07:55:39;;;;;;;15.30;9.80;;;3.60;1.00;;;;;;5011065;28;20188;-66
2022/11/27 07:58:06;;;;;;;12.47;9.60;;;3.70;99.90;;;;;;5010860;28;20212;-66
2022/11/27 08:00:32;;;;;;;11.63;8.80;;;3.70;1.00;;;;;;5010068;28;20473;-66
2022/11/27 08:03:01;;;;;;;12.03;8.67;;;3.80;99.90;;;;;;5010445;28;20442;-66
2022/11/27 08:05:27;;;;;;;13.47;10.40;;;3.80;99.90;;;;;;5011317;28;20202;-66
2022/11/27 08:07:52;;;;;;;12.00;9.20;;;3.80;99.90;;;;;;5010593;28;20486;-66
2022/11/27 08:10:18;;;;;;;12.20;9.90;;;3.90;1.00;;;;;;5006173;28;20452;-66
2022/11/27 08:12:44;;;;;;;12.10;9.00;;;3.80;12.20;;;;;;5003125;28;20548;-65
2022/11/27 08:15:10;;;;;;;11.07;7.73;;;3.60;1.00;;;;;;5008504;28;20582;-67
2022/11/27 08:17:36;;;;;;;12.37;8.00;;;3.60;1.00;;;;;;5009750;28;20215;-67
2022/11/27 08:20:05;;;;;;;13.40;9.07;;;3.30;1.00;;;;;;5012199;28;20896;-66
2022/11/27 08:22:30;;;;;;;12.00;8.23;;;3.10;1.00;;;;;;5012930;28;20202;-66
2022/11/27 08:24:56;;;;;;;12.40;8.73;;;3.00;99.90;;;;;;5010689;28;20932;-66
2022/11/27 08:27:22;;;;;;;13.30;8.87;;;2.90;99.90;;;;;;5023287;28;20309;-66
2022/11/27 08:29:47;;;;;;;12.33;9.47;;;2.80;99.90;;;;;;5013513;28;20187;-66
2022/11/27 08:32:13;;;;;;;12.93;9.57;;;2.90;99.90;;;;;;5008597;28;20278;-66
2022/11/27 08:34:39;;;;;;;17.17;10.83;;;2.90;99.90;;;;;;5009180;28;20184;-66
2022/11/27 08:37:06;;;;;;;13.90;9.50;;;2.90;99.90;;;;;;5003397;28;20663;-65
2022/11/27 08:39:32;;;;;;;16.37;11.20;;;2.90;99.90;;;;;;5010499;28;20344;-66
2022/11/27 08:41:58;;;;;;;27.73;15.57;;;2.90;99.90;;;;;;5010156;28;20443;-66
2022/11/27 08:44:23;;;;;;;57.47;21.87;;;2.70;99.90;;;;;;5009509;28;20501;-67
2022/11/27 08:46:49;;;;;;;31.93;16.50;;;2.60;99.90;;;;;;5010079;28;20237;-66
2022/11/27 08:49:15;;;;;;;29.53;16.00;;;2.60;99.90;;;;;;5008826;28;20208;-66
2022/11/27 08:51:40;;;;;;;33.40;16.33;;;2.80;10.20;;;;;;5007806;28;20279;-66
2022/11/27 08:54:06;;;;;;;44.03;21.03;;;3.10;1.00;;;;;;5017528;28;20179;-66
2022/11/27 08:56:32;;;;;;;31.50;18.67;;;3.00;1.00;;;;;;5009975;28;20184;-66
2022/11/27 08:58:57;;;;;;;34.10;20.97;;;3.00;1.00;;;;;;5007462;28;20180;-66
2022/11/27 09:01:26;;;;;;;39.33;19.37;;;2.90;1.00;;;;;;5009411;28;20267;-66
2022/11/27 09:03:52;;;;;;;30.73;17.13;;;3.60;1.00;;;;;;5008169;28;20272;-65
2022/11/27 09:06:20;;;;;;;29.87;16.90;;;3.00;99.90;;;;;;5009060;28;20561;-65
2022/11/27 09:08:47;;;;;;;25.13;14.27;;;3.30;1.00;;;;;;5008751;28;20467;-65
2022/11/27 09:11:15;;;;;;;24.20;15.70;;;3.10;1.00;;;;;;5007815;28;20752;-66
2022/11/27 09:13:41;;;;;;;22.83;13.83;;;3.10;1.00;;;;;;5009729;28;20914;-65
2022/11/27 09:16:10;;;;;;;21.17;14.10;;;2.90;99.90;;;;;;5009614;28;20399;-65
2022/11/27 09:18:36;;;;;;;21.47;15.10;;;3.20;99.90;;;;;;5009634;28;20422;-65
2022/11/27 09:21:08;;;;;;;26.87;15.90;;;3.30;99.90;;;;;;4993369;28;20427;-65
2022/11/27 09:23:34;;;;;;;28.40;15.57;;;3.20;46.00;;;;;;4989882;28;20408;-65
2022/11/27 09:26:01;;;;;;;21.87;12.80;;;2.90;99.90;;;;;;4990549;28;20505;-65
2022/11/27 09:28:27;;;;;;;24.10;12.73;;;3.00;99.90;;;;;;5002944;28;20541;-65
2022/11/27 09:30:57;;;;;;;15.40;11.37;;;2.80;99.90;;;;;;5008696;28;20860;-64
2022/11/27 09:33:24;;;;;;;20.27;12.77;;;2.90;99.90;;;;;;5018285;28;20433;-65
2022/11/27 09:35:50;;;;;;;24.17;14.90;;;2.80;99.90;;;;;;5029465;28;20418;-65
2022/11/27 09:38:16;;;;;;;19.10;13.17;;;2.90;1.00;;;;;;5011508;28;20419;-65
2022/11/27 09:40:50;;;;;;;21.37;11.90;;;2.80;1.00;;;;;;5008851;28;20188;-65
2022/11/27 09:43:19;;;;;;;22.80;15.20;;;3.20;99.90;;;;;;5009676;28;20180;-66
2022/11/27 09:45:55;;;;;;;28.93;13.20;;;3.00;99.90;;;;;;5011519;28;20429;-65
2022/11/27 09:48:33;;;;;;;21.20;11.97;;;2.90;99.90;;;;;;5013218;28;20468;-66
2022/11/27 09:51:04;;;;;;;21.00;12.50;;;2.90;99.90;;;;;;5001961;28;20466;-65
2022/11/27 09:53:50;;;;;;;23.13;16.13;;;3.00;99.90;;;;;;5011670;28;20522;-62
2022/11/27 09:56:17;;;;;;;18.97;13.27;;;2.90;1.00;;;;;;5009926;28;20462;-63
2022/11/27 09:58:55;;;;;;;20.97;13.20;;;2.80;99.90;;;;;;5012715;28;20439;-63
2022/11/27 10:01:27;;;;;;;21.10;12.43;;;2.80;99.90;;;;;;5010550;28;20936;-62
2022/11/27 10:03:54;;;;;;;19.97;13.40;;;3.00;99.90;;;;;;5011625;28;20439;-63
2022/11/27 10:06:31;;;;;;;20.37;12.80;;;3.40;12.60;;;;;;5011368;28;20834;-62
2022/11/27 10:09:16;;;;;;;15.10;10.37;;;3.40;1.00;;;;;;5011694;28;20513;-64
2022/11/27 10:11:59;;;;;;;19.10;10.83;;;3.70;99.90;;;;;;5010668;28;20427;-63
2022/11/27 10:14:46;;;;;;;14.23;8.90;;;3.80;1.00;;;;;;5005716;28;20776;-62
2022/11/27 10:17:19;;;;;;;11.93;9.07;;;3.30;99.90;;;;;;5011273;28;20557;-62
2022/11/27 10:20:00;;;;;;;13.87;8.70;;;2.90;99.90;;;;;;5009660;28;20823;-63
2022/11/27 10:22:41;;;;;;;13.33;7.73;;;3.10;99.90;;;;;;5011974;28;21066;-63
2022/11/27 10:25:20;;;;;;;15.63;7.40;;;3.20;1.00;;;;;;5012887;28;20738;-61
2022/11/27 10:28:04;;;;;;;16.80;6.40;;;3.00;99.90;;;;;;5014415;28;20557;-63
2022/11/27 10:30:35;;;;;;;28.93;9.27;;;2.90;99.50;;;;;;5010406;28;20510;-64
2022/11/27 10:33:02;;;;;;;24.50;8.50;;;3.20;99.90;;;;;;5013390;28;20423;-63
2022/11/27 10:35:31;;;;;;;13.40;7.83;;;3.60;1.00;;;;;;5023500;28;20484;-61
2022/11/27 10:38:10;;;;;;;21.10;8.17;;;3.80;99.90;;;;;;5011908;28;20513;-63
2022/11/27 10:40:41;;;;;;;14.07;7.60;;;4.00;99.90;;;;;;5010025;28;20509;-62
2022/11/27 10:43:34;;;;;;;27.20;9.00;;;3.60;1.00;;;;;;5012199;28;20431;-64
2022/11/27 10:46:12;;;;;;;8.37;6.70;;;3.80;1.00;;;;;;5007379;28;20467;-63
2022/11/27 10:48:38;;;;;;;13.33;7.20;;;3.50;99.90;;;;;;5011172;28;20462;-63
2022/11/27 10:51:21;;;;;;;13.00;7.70;;;3.30;1.00;;;;;;5009903;28;20510;-64
2022/11/27 10:53:51;;;;;;;13.13;7.73;;;3.30;1.00;;;;;;5011241;28;20522;-63
2022/11/27 10:56:52;;;;;;;9.30;6.87;;;3.40;1.00;;;;;;5011013;28;20446;-63
2022/11/27 10:59:24;;;;;;;8.37;6.60;;;3.30;1.00;;;;;;4964273;28;20764;-60
2022/11/27 11:01:53;;;;;;;12.70;7.10;;;3.20;99.90;;;;;;4992243;28;20412;-63
2022/11/27 11:04:24;;;;;;;8.17;7.30;;;3.30;99.90;;;;;;4992272;28;20784;-64
2022/11/27 11:06:50;;;;;;;10.33;7.80;;;3.30;1.00;;;;;;5006130;28;21394;-62
2022/11/27 11:09:24;;;;;;;10.87;8.53;;;3.40;99.90;;;;;;5015206;28;20466;-63
2022/11/27 11:11:50;;;;;;;13.17;8.63;;;3.50;99.90;;;;;;4991330;28;20419;-63
2022/11/27 11:14:22;;;;;;;28.10;9.00;;;3.70;1.00;;;;;;5008595;28;20899;-60
2022/11/27 11:16:50;;;;;;;23.47;7.73;;;4.10;99.90;;;;;;5012351;28;20946;-63
2022/11/27 11:19:35;;;;;;;16.80;8.50;;;4.40;1.00;;;;;;5014281;28;20433;-64
2022/11/27 11:22:15;;;;;;;16.20;9.40;;;4.50;1.00;;;;;;5022315;28;20474;-64
2022/11/27 11:24:46;;;;;;;15.80;10.00;;;4.30;99.90;;;;;;5025964;28;20800;-63
2022/11/27 11:27:16;;;;;;;14.47;7.87;;;4.30;1.00;;;;;;5011577;28;20432;-61
2022/11/27 11:29:51;;;;;;;9.47;7.90;;;4.40;1.00;;;;;;5021628;28;20464;-64
2022/11/27 11:32:20;;;;;;;10.47;8.13;;;4.30;1.00;;;;;;5030262;28;20488;-63
2022/11/27 11:34:58;;;;;;;8.40;7.23;;;4.20;1.00;;;;;;5031406;28;20402;-63
2022/11/27 11:37:31;;;;;;;9.57;7.77;;;3.80;99.90;;;;;;5016466;28;20983;-64
2022/11/27 11:40:22;;;;;;;9.53;7.53;;;3.60;99.90;;;;;;5010842;28;20939;-65
2022/11/27 11:42:58;;;;;;;10.97;8.27;;;3.60;99.90;;;;;;5013496;28;20411;-65
2022/11/27 11:45:25;;;;;;;8.60;7.20;;;3.60;1.00;;;;;;5009486;28;20431;-65
2022/11/27 11:47:56;;;;;;;10.87;8.00;;;3.60;47.30;;;;;;5007826;28;20462;-62
2022/11/27 11:50:36;;;;;;;13.40;8.63;;;3.70;1.00;;;;;;5010604;28;20484;-65
2022/11/27 11:53:01;;;;;;;8.67;6.97;;;3.60;99.90;;;;;;5009222;28;20427;-63
2022/11/27 11:55:36;;;;;;;14.70;8.13;;;3.60;1.00;;;;;;5007588;28;20449;-63
2022/11/27 11:58:57;;;;;;;8.83;7.87;;;3.80;99.90;;;;;;5010177;28;20218;-62
2022/11/27 12:02:00;;;;;;;10.00;8.60;;;4.10;99.90;;;;;;4966394;28;20448;-64
2022/11/27 12:04:51;;;;;;;8.97;8.07;;;3.80;1.00;;;;;;4965459;28;20452;-64
2022/11/27 12:07:45;;;;;;;15.03;8.40;;;3.60;1.00;;;;;;4956512;28;20468;-63
2022/11/27 12:10:26;;;;;;;9.90;7.57;;;3.70;1.00;;;;;;4967599;28;20507;-64
2022/11/27 12:13:10;;;;;;;40.00;8.90;;;3.90;1.00;;;;;;4968530;28;20831;-64
2022/11/27 12:15:45;;;;;;;13.90;8.27;;;4.20;99.90;;;;;;4966759;28;20751;-65
2022/11/27 12:18:32;;;;;;;15.10;7.30;;;4.30;99.90;;;;;;4960993;28;20868;-63
2022/11/27 12:21:03;;;;;;;9.33;7.90;;;4.10;99.90;;;;;;4967685;28;20444;-63
2022/11/27 12:23:54;;;;;;;21.70;9.07;;;4.20;1.00;;;;;;4966509;28;20451;-63
2022/11/27 12:26:22;;;;;;;10.00;8.57;;;4.00;1.00;;;;;;4962839;28;20540;-64
2022/11/27 12:29:29;;;;;;;9.97;8.17;;;3.90;99.90;;;;;;4965823;28;20867;-63
2022/11/27 12:31:58;;;;;;;9.40;7.93;;;3.60;1.00;;;;;;4952075;28;20788;-64
2022/11/27 12:34:58;;;;;;;21.27;8.83;;;3.60;1.00;;;;;;5006880;28;20808;-64
2022/11/27 12:37:48;;;;;;;37.43;10.47;;;3.90;99.90;;;;;;5008529;28;20823;-61
2022/11/27 12:40:47;;;;;;;46.20;14.20;;;4.10;99.90;;;;;;5008707;28;20532;-63
2022/11/27 12:43:23;;;;;;;10.40;8.50;;;3.70;99.90;;;;;;5002230;28;20450;-63
2022/11/27 12:45:58;;;;;;;20.60;9.53;;;3.70;99.90;;;;;;5002158;28;20520;-61
2022/11/27 12:48:35;;;;;;;11.40;8.13;;;3.90;1.00;;;;;;5007009;28;20501;-63
2022/11/27 12:51:42;;;;;;;38.03;11.60;;;4.10;1.00;;;;;;5008195;28;20508;-61
2022/11/27 12:54:21;;;;;;;9.80;8.80;;;4.40;1.00;;;;;;4984249;28;20443;-62
2022/11/27 12:56:53;;;;;;;15.13;10.27;;;4.20;1.00;;;;;;5009307;28;20458;-62
2022/11/27 12:59:47;;;;;;;11.77;9.33;;;4.20;1.00;;;;;;5006990;28;20443;-64
2022/11/27 13:02:40;;;;;;;9.93;8.90;;;4.20;1.00;;;;;;5008298;28;20443;-64
2022/11/27 13:05:12;;;;;;;12.60;9.50;;;3.90;1.00;;;;;;5006028;28;20454;-62
2022/11/27 13:08:00;;;;;;;14.30;8.93;;;4.10;1.00;;;;;;5008956;28;20502;-63
2022/11/27 13:10:44;;;;;;;14.70;9.73;;;4.10;1.00;;;;;;5008921;28;20414;-64
2022/11/27 13:13:16;;;;;;;17.60;9.17;;;4.20;1.00;;;;;;5004435;28;20505;-64